sensor_id;sensor_type;location;lat;lon;timestamp;P1;durP1;ratioP1;P2;durP2;ratioP2
16900;SDS011;8567;52.540;6.434;2022-08-11T00:00:46;20.15;;;19.15;;
16900;SDS011;8567;52.540;6.434;2022-08-11T00:03:13;20.70;;;19.70;;
16900;SDS011;8567;52.540;6.434;2022-08-11T00:05:43;20.33;;;19.23;;
16900;SDS011;8567;52.540;6.434;2022-08-11T00:08:19;17.83;;;16.98;;
16900;SDS011;8567;52.540;6.434;2022-08-11T00:10:50;18.15;;;17.25;;
16900;SDS011;8567;52.540;6.434;2022-08-11T00:13:19;19.23;;;18.23;;
16900;SDS011;8567;52.540;6.434;2022-08-11T00:15:49;19.27;;;18.33;;
16900;SDS011;8567;52.540;6.434;2022-08-11T00:18:16;20.55;;;19.45;;
16900;SDS011;8567;52.540;6.434;2022-08-11T00:20:45;19.42;;;18.42;;
16900;SDS011;8567;52.540;6.434;2022-08-11T00:23:13;18.45;;;17.55;;
16900;SDS011;8567;52.540;6.434;2022-08-11T00:25:42;18.95;;;18.02;;
16900;SDS011;8567;52.540;6.434;2022-08-11T00:28:27;19.63;;;18.67;;
16900;SDS011;8567;52.540;6.434;2022-08-11T00:30:57;20.02;;;18.92;;
16900;SDS011;8567;52.540;6.434;2022-08-11T00:33:30;19.38;;;18.42;;
16900;SDS011;8567;52.540;6.434;2022-08-11T00:36:00;19.48;;;18.48;;
16900;SDS011;8567;52.540;6.434;2022-08-11T00:38:30;19.02;;;18.08;;
16900;SDS011;8567;52.540;6.434;2022-08-11T00:41:00;19.63;;;18.63;;
16900;SDS011;8567;52.540;6.434;2022-08-11T00:43:40;19.05;;;17.85;;
16900;SDS011;8567;52.540;6.434;2022-08-11T00:46:20;19.77;;;18.83;;
16900;SDS011;8567;52.540;6.434;2022-08-11T00:49:04;17.77;;;16.83;;
16900;SDS011;8567;52.540;6.434;2022-08-11T00:54:53;18.15;;;17.17;;
16900;SDS011;8567;52.540;6.434;2022-08-11T01:03:58;17.50;;;16.63;;
16900;SDS011;8567;52.540;6.434;2022-08-11T01:06:50;17.48;;;16.58;;
16900;SDS011;8567;52.540;6.434;2022-08-11T01:09:38;17.05;;;16.15;;
16900;SDS011;8567;52.540;6.434;2022-08-11T01:12:17;16.00;;;15.15;;
16900;SDS011;8567;52.540;6.434;2022-08-11T01:18:13;15.38;;;14.65;;
16900;SDS011;8567;52.540;6.434;2022-08-11T01:21:13;15.23;;;14.48;;
16900;SDS011;8567;52.540;6.434;2022-08-11T01:33:34;15.07;;;14.38;;
16900;SDS011;8567;52.540;6.434;2022-08-11T01:39:42;13.80;;;13.05;;
16900;SDS011;8567;52.540;6.434;2022-08-11T01:45:45;12.90;;;12.15;;
16900;SDS011;8567;52.540;6.434;2022-08-11T01:48:19;13.48;;;12.65;;
16900;SDS011;8567;52.540;6.434;2022-08-11T01:51:04;12.93;;;12.27;;
16900;SDS011;8567;52.540;6.434;2022-08-11T01:53:44;12.27;;;11.48;;
16900;SDS011;8567;52.540;6.434;2022-08-11T01:56:25;11.95;;;11.35;;
16900;SDS011;8567;52.540;6.434;2022-08-11T01:59:16;11.98;;;11.38;;
16900;SDS011;8567;52.540;6.434;2022-08-11T02:05:13;11.20;;;10.70;;
16900;SDS011;8567;52.540;6.434;2022-08-11T02:07:51;11.98;;;11.40;;
16900;SDS011;8567;52.540;6.434;2022-08-11T02:10:22;10.40;;;9.90;;
16900;SDS011;8567;52.540;6.434;2022-08-11T02:13:14;11.00;;;10.40;;
16900;SDS011;8567;52.540;6.434;2022-08-11T02:15:48;10.95;;;10.43;;
16900;SDS011;8567;52.540;6.434;2022-08-11T02:18:22;10.13;;;9.63;;
16900;SDS011;8567;52.540;6.434;2022-08-11T02:21:13;9.68;;;9.18;;
16900;SDS011;8567;52.540;6.434;2022-08-11T02:24:03;9.35;;;8.85;;
16900;SDS011;8567;52.540;6.434;2022-08-11T02:26:39;9.23;;;8.73;;
16900;SDS011;8567;52.540;6.434;2022-08-11T02:29:12;9.18;;;8.75;;
16900;SDS011;8567;52.540;6.434;2022-08-11T02:31:51;9.00;;;8.60;;
16900;SDS011;8567;52.540;6.434;2022-08-11T02:34:44;7.80;;;7.45;;
16900;SDS011;8567;52.540;6.434;2022-08-11T02:37:19;8.23;;;7.82;;
16900;SDS011;8567;52.540;6.434;2022-08-11T02:39:55;9.05;;;8.57;;
16900;SDS011;8567;52.540;6.434;2022-08-11T02:42:37;9.40;;;8.90;;
16900;SDS011;8567;52.540;6.434;2022-08-11T02:45:11;8.27;;;7.88;;
16900;SDS011;8567;52.540;6.434;2022-08-11T02:47:53;8.88;;;8.48;;
16900;SDS011;8567;52.540;6.434;2022-08-11T02:50:55;8.15;;;7.75;;
16900;SDS011;8567;52.540;6.434;2022-08-11T02:53:35;7.75;;;7.40;;
16900;SDS011;8567;52.540;6.434;2022-08-11T02:56:07;8.02;;;7.63;;
16900;SDS011;8567;52.540;6.434;2022-08-11T02:58:40;7.50;;;7.18;;
16900;SDS011;8567;52.540;6.434;2022-08-11T03:01:39;8.05;;;7.65;;
16900;SDS011;8567;52.540;6.434;2022-08-11T03:04:12;8.48;;;8.05;;
16900;SDS011;8567;52.540;6.434;2022-08-11T03:06:47;8.23;;;7.82;;
16900;SDS011;8567;52.540;6.434;2022-08-11T03:09:18;8.50;;;8.10;;
16900;SDS011;8567;52.540;6.434;2022-08-11T03:11:51;8.00;;;7.63;;
16900;SDS011;8567;52.540;6.434;2022-08-11T03:14:46;7.72;;;7.32;;
16900;SDS011;8567;52.540;6.434;2022-08-11T03:17:35;7.88;;;7.47;;
16900;SDS011;8567;52.540;6.434;2022-08-11T03:23:02;7.60;;;7.20;;
16900;SDS011;8567;52.540;6.434;2022-08-11T03:25:37;7.22;;;6.93;;
16900;SDS011;8567;52.540;6.434;2022-08-11T03:28:13;7.88;;;7.47;;
16900;SDS011;8567;52.540;6.434;2022-08-11T03:30:53;7.93;;;7.53;;
16900;SDS011;8567;52.540;6.434;2022-08-11T03:33:32;6.90;;;6.60;;
16900;SDS011;8567;52.540;6.434;2022-08-11T03:36:28;6.80;;;6.50;;
16900;SDS011;8567;52.540;6.434;2022-08-11T03:39:15;7.32;;;6.97;;
16900;SDS011;8567;52.540;6.434;2022-08-11T03:41:50;7.40;;;7.00;;
16900;SDS011;8567;52.540;6.434;2022-08-11T03:44:27;7.57;;;7.22;;
16900;SDS011;8567;52.540;6.434;2022-08-11T03:47:13;7.13;;;6.72;;
16900;SDS011;8567;52.540;6.434;2022-08-11T03:49:56;6.78;;;6.47;;
16900;SDS011;8567;52.540;6.434;2022-08-11T03:52:32;6.57;;;6.28;;
16900;SDS011;8567;52.540;6.434;2022-08-11T03:55:13;6.57;;;6.28;;
16900;SDS011;8567;52.540;6.434;2022-08-11T04:07:21;5.80;;;5.50;;
16900;SDS011;8567;52.540;6.434;2022-08-11T04:10:20;6.20;;;5.90;;
16900;SDS011;8567;52.540;6.434;2022-08-11T04:13:12;5.95;;;5.65;;
16900;SDS011;8567;52.540;6.434;2022-08-11T04:16:06;5.70;;;5.45;;
16900;SDS011;8567;52.540;6.434;2022-08-11T04:18:58;6.10;;;5.80;;
16900;SDS011;8567;52.540;6.434;2022-08-11T04:21:50;5.72;;;5.32;;
16900;SDS011;8567;52.540;6.434;2022-08-11T04:27:34;6.28;;;5.97;;
16900;SDS011;8567;52.540;6.434;2022-08-11T04:30:20;6.18;;;5.88;;
16900;SDS011;8567;52.540;6.434;2022-08-11T04:33:01;6.47;;;6.18;;
16900;SDS011;8567;52.540;6.434;2022-08-11T04:35:56;6.10;;;5.80;;
16900;SDS011;8567;52.540;6.434;2022-08-11T04:45:23;5.78;;;5.47;;
16900;SDS011;8567;52.540;6.434;2022-08-11T04:48:08;5.68;;;5.40;;
16900;SDS011;8567;52.540;6.434;2022-08-11T04:51:21;5.93;;;5.63;;
16900;SDS011;8567;52.540;6.434;2022-08-11T04:54:25;5.75;;;5.45;;
16900;SDS011;8567;52.540;6.434;2022-08-11T04:57:32;6.00;;;5.70;;
16900;SDS011;8567;52.540;6.434;2022-08-11T05:00:23;5.97;;;5.68;;
16900;SDS011;8567;52.540;6.434;2022-08-11T05:06:20;6.28;;;5.88;;
16900;SDS011;8567;52.540;6.434;2022-08-11T05:12:05;6.15;;;5.85;;
16900;SDS011;8567;52.540;6.434;2022-08-11T05:14:59;6.53;;;6.13;;
16900;SDS011;8567;52.540;6.434;2022-08-11T05:17:48;6.32;;;6.03;;
16900;SDS011;8567;52.540;6.434;2022-08-11T05:20:39;5.88;;;5.55;;
16900;SDS011;8567;52.540;6.434;2022-08-11T05:23:31;6.13;;;5.82;;
16900;SDS011;8567;52.540;6.434;2022-08-11T05:26:18;6.47;;;6.10;;
16900;SDS011;8567;52.540;6.434;2022-08-11T05:29:04;6.68;;;6.28;;
16900;SDS011;8567;52.540;6.434;2022-08-11T05:32:10;6.40;;;6.10;;
16900;SDS011;8567;52.540;6.434;2022-08-11T05:34:58;6.60;;;6.20;;
16900;SDS011;8567;52.540;6.434;2022-08-11T05:37:30;6.70;;;6.30;;
16900;SDS011;8567;52.540;6.434;2022-08-11T05:40:04;7.10;;;6.80;;
16900;SDS011;8567;52.540;6.434;2022-08-11T05:42:52;7.03;;;6.63;;
16900;SDS011;8567;52.540;6.434;2022-08-11T05:45:39;7.15;;;6.75;;
16900;SDS011;8567;52.540;6.434;2022-08-11T05:48:29;7.13;;;6.75;;
16900;SDS011;8567;52.540;6.434;2022-08-11T05:51:16;7.63;;;7.22;;
16900;SDS011;8567;52.540;6.434;2022-08-11T05:54:02;7.13;;;6.82;;
16900;SDS011;8567;52.540;6.434;2022-08-11T05:56:51;7.20;;;6.80;;
16900;SDS011;8567;52.540;6.434;2022-08-11T05:59:21;7.70;;;7.38;;
16900;SDS011;8567;52.540;6.434;2022-08-11T06:01:49;8.07;;;7.68;;
16900;SDS011;8567;52.540;6.434;2022-08-11T06:04:19;8.13;;;7.72;;
16900;SDS011;8567;52.540;6.434;2022-08-11T06:06:48;8.32;;;7.93;;
16900;SDS011;8567;52.540;6.434;2022-08-11T06:09:22;8.55;;;8.05;;
16900;SDS011;8567;52.540;6.434;2022-08-11T06:11:52;8.10;;;7.70;;
16900;SDS011;8567;52.540;6.434;2022-08-11T06:14:23;8.32;;;7.93;;
16900;SDS011;8567;52.540;6.434;2022-08-11T06:16:51;9.48;;;9.00;;
16900;SDS011;8567;52.540;6.434;2022-08-11T06:19:28;7.95;;;7.55;;
16900;SDS011;8567;52.540;6.434;2022-08-11T06:21:57;8.77;;;8.38;;
16900;SDS011;8567;52.540;6.434;2022-08-11T06:24:26;8.55;;;8.05;;
16900;SDS011;8567;52.540;6.434;2022-08-11T06:26:53;8.80;;;8.32;;
16900;SDS011;8567;52.540;6.434;2022-08-11T06:29:21;8.48;;;8.07;;
16900;SDS011;8567;52.540;6.434;2022-08-11T06:31:50;9.15;;;8.65;;
16900;SDS011;8567;52.540;6.434;2022-08-11T06:34:26;8.00;;;7.60;;
16900;SDS011;8567;52.540;6.434;2022-08-11T06:37:04;9.10;;;8.60;;
16900;SDS011;8567;52.540;6.434;2022-08-11T06:39:47;9.27;;;8.68;;
16900;SDS011;8567;52.540;6.434;2022-08-11T06:42:37;8.65;;;8.25;;
16900;SDS011;8567;52.540;6.434;2022-08-11T06:45:15;8.32;;;7.93;;
16900;SDS011;8567;52.540;6.434;2022-08-11T06:47:50;7.78;;;7.38;;
16900;SDS011;8567;52.540;6.434;2022-08-11T06:50:20;8.02;;;7.63;;
16900;SDS011;8567;52.540;6.434;2022-08-11T06:53:05;7.72;;;7.32;;
16900;SDS011;8567;52.540;6.434;2022-08-11T06:55:35;8.38;;;7.97;;
16900;SDS011;8567;52.540;6.434;2022-08-11T06:58:24;7.20;;;6.90;;
16900;SDS011;8567;52.540;6.434;2022-08-11T07:01:30;6.68;;;6.38;;
16900;SDS011;8567;52.540;6.434;2022-08-11T07:04:10;7.30;;;6.78;;
16900;SDS011;8567;52.540;6.434;2022-08-11T07:06:44;7.00;;;6.70;;
16900;SDS011;8567;52.540;6.434;2022-08-11T07:13:06;6.90;;;6.30;;
16900;SDS011;8567;52.540;6.434;2022-08-11T07:16:04;6.32;;;6.03;;
16900;SDS011;8567;52.540;6.434;2022-08-11T07:18:34;6.60;;;6.30;;
16900;SDS011;8567;52.540;6.434;2022-08-11T07:21:20;6.22;;;5.93;;
16900;SDS011;8567;52.540;6.434;2022-08-11T07:24:10;6.65;;;6.28;;
16900;SDS011;8567;52.540;6.434;2022-08-11T07:26:59;6.72;;;6.43;;
16900;SDS011;8567;52.540;6.434;2022-08-11T07:29:46;5.88;;;5.57;;
16900;SDS011;8567;52.540;6.434;2022-08-11T07:32:19;6.53;;;6.22;;
16900;SDS011;8567;52.540;6.434;2022-08-11T07:34:51;6.40;;;6.10;;
16900;SDS011;8567;52.540;6.434;2022-08-11T07:37:24;6.30;;;6.00;;
16900;SDS011;8567;52.540;6.434;2022-08-11T07:39:54;7.03;;;6.72;;
16900;SDS011;8567;52.540;6.434;2022-08-11T07:42:26;7.85;;;7.50;;
16900;SDS011;8567;52.540;6.434;2022-08-11T07:44:55;7.38;;;7.07;;
16900;SDS011;8567;52.540;6.434;2022-08-11T07:47:40;7.07;;;6.78;;
16900;SDS011;8567;52.540;6.434;2022-08-11T07:50:25;6.78;;;6.47;;
16900;SDS011;8567;52.540;6.434;2022-08-11T07:53:12;7.22;;;6.93;;
16900;SDS011;8567;52.540;6.434;2022-08-11T07:55:41;7.95;;;7.57;;
16900;SDS011;8567;52.540;6.434;2022-08-11T07:58:09;8.45;;;8.05;;
16900;SDS011;8567;52.540;6.434;2022-08-11T08:00:54;7.97;;;7.47;;
16900;SDS011;8567;52.540;6.434;2022-08-11T08:03:40;7.22;;;6.90;;
16900;SDS011;8567;52.540;6.434;2022-08-11T08:06:26;7.72;;;7.38;;
16900;SDS011;8567;52.540;6.434;2022-08-11T08:09:11;7.72;;;7.32;;
16900;SDS011;8567;52.540;6.434;2022-08-11T08:11:58;7.85;;;7.50;;
16900;SDS011;8567;52.540;6.434;2022-08-11T08:14:44;7.88;;;7.50;;
16900;SDS011;8567;52.540;6.434;2022-08-11T08:17:28;8.20;;;7.80;;
16900;SDS011;8567;52.540;6.434;2022-08-11T08:20:15;8.50;;;8.10;;
16900;SDS011;8567;52.540;6.434;2022-08-11T08:22:45;8.77;;;8.27;;
16900;SDS011;8567;52.540;6.434;2022-08-11T08:25:15;8.25;;;7.85;;
16900;SDS011;8567;52.540;6.434;2022-08-11T08:27:44;7.90;;;7.50;;
16900;SDS011;8567;52.540;6.434;2022-08-11T08:30:11;8.68;;;8.27;;
16900;SDS011;8567;52.540;6.434;2022-08-11T08:32:57;9.18;;;8.75;;
16900;SDS011;8567;52.540;6.434;2022-08-11T08:35:25;9.30;;;8.80;;
16900;SDS011;8567;52.540;6.434;2022-08-11T08:37:54;8.75;;;8.27;;
16900;SDS011;8567;52.540;6.434;2022-08-11T08:40:21;10.00;;;9.50;;
16900;SDS011;8567;52.540;6.434;2022-08-11T08:42:50;9.57;;;9.07;;
16900;SDS011;8567;52.540;6.434;2022-08-11T08:45:19;10.68;;;10.18;;
16900;SDS011;8567;52.540;6.434;2022-08-11T08:47:50;9.57;;;9.15;;
16900;SDS011;8567;52.540;6.434;2022-08-11T08:50:20;10.35;;;9.85;;
16900;SDS011;8567;52.540;6.434;2022-08-11T08:53:08;11.23;;;10.70;;
16900;SDS011;8567;52.540;6.434;2022-08-11T08:55:36;10.60;;;10.10;;
16900;SDS011;8567;52.540;6.434;2022-08-11T08:58:06;14.10;;;13.40;;
16900;SDS011;8567;52.540;6.434;2022-08-11T09:00:36;11.38;;;10.88;;
16900;SDS011;8567;52.540;6.434;2022-08-11T09:03:05;13.10;;;12.45;;
16900;SDS011;8567;52.540;6.434;2022-08-11T09:05:33;13.43;;;12.80;;
16900;SDS011;8567;52.540;6.434;2022-08-11T09:08:00;13.25;;;12.65;;
16900;SDS011;8567;52.540;6.434;2022-08-11T09:10:27;12.95;;;12.32;;
16900;SDS011;8567;52.540;6.434;2022-08-11T09:12:55;14.60;;;13.80;;
16900;SDS011;8567;52.540;6.434;2022-08-11T09:15:25;15.45;;;14.55;;
16900;SDS011;8567;52.540;6.434;2022-08-11T09:17:53;14.30;;;13.60;;
16900;SDS011;8567;52.540;6.434;2022-08-11T09:20:30;15.00;;;14.10;;
16900;SDS011;8567;52.540;6.434;2022-08-11T09:23:00;15.43;;;14.63;;
16900;SDS011;8567;52.540;6.434;2022-08-11T09:25:47;15.48;;;14.68;;
16900;SDS011;8567;52.540;6.434;2022-08-11T09:28:33;15.32;;;14.63;;
16900;SDS011;8567;52.540;6.434;2022-08-11T09:31:02;17.48;;;16.60;;
16900;SDS011;8567;52.540;6.434;2022-08-11T09:33:32;18.42;;;17.52;;
16900;SDS011;8567;52.540;6.434;2022-08-11T09:36:00;18.00;;;17.05;;
16900;SDS011;8567;52.540;6.434;2022-08-11T09:38:49;18.88;;;17.98;;
16900;SDS011;8567;52.540;6.434;2022-08-11T09:41:34;20.27;;;19.27;;
16900;SDS011;8567;52.540;6.434;2022-08-11T09:44:03;21.10;;;20.05;;
16900;SDS011;8567;52.540;6.434;2022-08-11T09:46:51;21.85;;;20.77;;
16900;SDS011;8567;52.540;6.434;2022-08-11T09:49:21;22.23;;;21.15;;
16900;SDS011;8567;52.540;6.434;2022-08-11T09:51:48;24.88;;;23.65;;
16900;SDS011;8567;52.540;6.434;2022-08-11T09:54:16;27.55;;;26.13;;
16900;SDS011;8567;52.540;6.434;2022-08-11T09:56:44;27.02;;;25.67;;
16900;SDS011;8567;52.540;6.434;2022-08-11T09:59:28;29.67;;;28.17;;
16900;SDS011;8567;52.540;6.434;2022-08-11T10:01:59;26.33;;;25.05;;
16900;SDS011;8567;52.540;6.434;2022-08-11T10:04:30;29.90;;;28.40;;
16900;SDS011;8567;52.540;6.434;2022-08-11T10:07:03;26.95;;;25.65;;
16900;SDS011;8567;52.540;6.434;2022-08-11T10:09:35;24.98;;;23.65;;
16900;SDS011;8567;52.540;6.434;2022-08-11T10:12:05;23.85;;;22.67;;
16900;SDS011;8567;52.540;6.434;2022-08-11T10:14:36;21.75;;;20.67;;
16900;SDS011;8567;52.540;6.434;2022-08-11T10:17:28;20.83;;;19.77;;
16900;SDS011;8567;52.540;6.434;2022-08-11T10:19:58;20.33;;;19.33;;
16900;SDS011;8567;52.540;6.434;2022-08-11T10:22:28;20.17;;;19.23;;
16900;SDS011;8567;52.540;6.434;2022-08-11T10:25:13;20.67;;;19.67;;
16900;SDS011;8567;52.540;6.434;2022-08-11T10:27:58;20.55;;;19.55;;
16900;SDS011;8567;52.540;6.434;2022-08-11T10:30:28;20.25;;;19.15;;
16900;SDS011;8567;52.540;6.434;2022-08-11T10:33:14;18.73;;;17.77;;
16900;SDS011;8567;52.540;6.434;2022-08-11T10:36:01;18.23;;;17.35;;
16900;SDS011;8567;52.540;6.434;2022-08-11T10:38:30;19.23;;;18.27;;
16900;SDS011;8567;52.540;6.434;2022-08-11T10:40:58;18.98;;;18.05;;
16900;SDS011;8567;52.540;6.434;2022-08-11T10:43:44;21.65;;;20.45;;
16900;SDS011;8567;52.540;6.434;2022-08-11T10:46:11;18.20;;;17.33;;
16900;SDS011;8567;52.540;6.434;2022-08-11T10:48:58;18.73;;;17.80;;
16900;SDS011;8567;52.540;6.434;2022-08-11T10:51:26;15.27;;;14.52;;
16900;SDS011;8567;52.540;6.434;2022-08-11T10:54:12;14.90;;;14.20;;
16900;SDS011;8567;52.540;6.434;2022-08-11T10:56:58;13.98;;;13.27;;
16900;SDS011;8567;52.540;6.434;2022-08-11T10:59:44;13.25;;;12.65;;
16900;SDS011;8567;52.540;6.434;2022-08-11T11:02:12;12.80;;;12.00;;
16900;SDS011;8567;52.540;6.434;2022-08-11T11:04:51;12.48;;;11.77;;
16900;SDS011;8567;52.540;6.434;2022-08-11T11:07:26;14.98;;;14.25;;
16900;SDS011;8567;52.540;6.434;2022-08-11T11:10:02;14.10;;;13.38;;
16900;SDS011;8567;52.540;6.434;2022-08-11T11:12:34;16.05;;;15.27;;
16900;SDS011;8567;52.540;6.434;2022-08-11T11:15:22;14.68;;;13.98;;
16900;SDS011;8567;52.540;6.434;2022-08-11T11:18:06;11.85;;;11.25;;
16900;SDS011;8567;52.540;6.434;2022-08-11T11:20:39;10.57;;;10.07;;
16900;SDS011;8567;52.540;6.434;2022-08-11T11:23:10;10.65;;;10.15;;
16900;SDS011;8567;52.540;6.434;2022-08-11T11:25:47;11.63;;;11.02;;
16900;SDS011;8567;52.540;6.434;2022-08-11T11:28:33;11.48;;;10.88;;
16900;SDS011;8567;52.540;6.434;2022-08-11T11:31:18;14.27;;;13.50;;
16900;SDS011;8567;52.540;6.434;2022-08-11T11:34:02;14.48;;;13.77;;
16900;SDS011;8567;52.540;6.434;2022-08-11T11:36:48;14.18;;;13.48;;
16900;SDS011;8567;52.540;6.434;2022-08-11T11:39:18;13.90;;;13.23;;
16900;SDS011;8567;52.540;6.434;2022-08-11T11:41:47;13.65;;;12.98;;
16900;SDS011;8567;52.540;6.434;2022-08-11T11:44:14;10.23;;;9.65;;
16900;SDS011;8567;52.540;6.434;2022-08-11T11:46:41;11.00;;;10.45;;
16900;SDS011;8567;52.540;6.434;2022-08-11T11:49:10;11.57;;;10.98;;
16900;SDS011;8567;52.540;6.434;2022-08-11T11:51:39;12.68;;;12.02;;
16900;SDS011;8567;52.540;6.434;2022-08-11T11:54:08;10.25;;;9.75;;
16900;SDS011;8567;52.540;6.434;2022-08-11T11:56:35;11.73;;;11.13;;
16900;SDS011;8567;52.540;6.434;2022-08-11T11:59:03;13.30;;;12.60;;
16900;SDS011;8567;52.540;6.434;2022-08-11T12:01:49;12.25;;;11.50;;
16900;SDS011;8567;52.540;6.434;2022-08-11T12:04:16;11.23;;;10.68;;
16900;SDS011;8567;52.540;6.434;2022-08-11T12:06:45;10.43;;;9.93;;
16900;SDS011;8567;52.540;6.434;2022-08-11T12:09:13;10.85;;;10.20;;
16900;SDS011;8567;52.540;6.434;2022-08-11T12:11:47;11.55;;;10.95;;
16900;SDS011;8567;52.540;6.434;2022-08-11T12:14:33;11.15;;;10.63;;
16900;SDS011;8567;52.540;6.434;2022-08-11T12:17:01;12.27;;;11.68;;
16900;SDS011;8567;52.540;6.434;2022-08-11T12:19:28;12.95;;;12.30;;
16900;SDS011;8567;52.540;6.434;2022-08-11T12:21:55;13.13;;;12.43;;
16900;SDS011;8567;52.540;6.434;2022-08-11T12:24:43;14.43;;;13.70;;
16900;SDS011;8567;52.540;6.434;2022-08-11T12:27:28;15.55;;;14.75;;
16900;SDS011;8567;52.540;6.434;2022-08-11T12:29:57;15.00;;;14.27;;
16900;SDS011;8567;52.540;6.434;2022-08-11T12:32:30;15.77;;;15.00;;
16900;SDS011;8567;52.540;6.434;2022-08-11T12:35:00;17.45;;;16.52;;
16900;SDS011;8567;52.540;6.434;2022-08-11T12:37:29;17.70;;;16.45;;
16900;SDS011;8567;52.540;6.434;2022-08-11T12:39:59;17.45;;;16.55;;
16900;SDS011;8567;52.540;6.434;2022-08-11T12:42:45;17.40;;;16.50;;
16900;SDS011;8567;52.540;6.434;2022-08-11T12:45:31;18.55;;;17.60;;
16900;SDS011;8567;52.540;6.434;2022-08-11T12:48:03;17.42;;;16.58;;
16900;SDS011;8567;52.540;6.434;2022-08-11T12:50:50;18.30;;;17.40;;
16900;SDS011;8567;52.540;6.434;2022-08-11T12:53:39;18.25;;;17.25;;
16900;SDS011;8567;52.540;6.434;2022-08-11T12:56:11;17.92;;;17.02;;
16900;SDS011;8567;52.540;6.434;2022-08-11T12:58:56;18.70;;;17.70;;
16900;SDS011;8567;52.540;6.434;2022-08-11T13:01:41;17.83;;;16.92;;
16900;SDS011;8567;52.540;6.434;2022-08-11T13:04:26;17.83;;;16.92;;
16900;SDS011;8567;52.540;6.434;2022-08-11T13:07:12;16.90;;;16.02;;
16900;SDS011;8567;52.540;6.434;2022-08-11T13:09:40;19.52;;;18.52;;
16900;SDS011;8567;52.540;6.434;2022-08-11T13:12:10;17.08;;;16.23;;
16900;SDS011;8567;52.540;6.434;2022-08-11T13:14:55;16.27;;;15.30;;
16900;SDS011;8567;52.540;6.434;2022-08-11T13:17:23;18.75;;;17.83;;
16900;SDS011;8567;52.540;6.434;2022-08-11T13:19:53;17.60;;;16.73;;
16900;SDS011;8567;52.540;6.434;2022-08-11T13:22:20;19.55;;;18.55;;
16900;SDS011;8567;52.540;6.434;2022-08-11T13:24:48;19.15;;;18.17;;
16900;SDS011;8567;52.540;6.434;2022-08-11T13:27:18;18.08;;;17.13;;
16900;SDS011;8567;52.540;6.434;2022-08-11T13:29:45;20.25;;;19.25;;
16900;SDS011;8567;52.540;6.434;2022-08-11T13:32:14;20.15;;;19.15;;
16900;SDS011;8567;52.540;6.434;2022-08-11T13:34:41;19.65;;;18.65;;
16900;SDS011;8567;52.540;6.434;2022-08-11T13:37:09;17.88;;;16.98;;
16900;SDS011;8567;52.540;6.434;2022-08-11T13:39:39;18.17;;;17.30;;
16900;SDS011;8567;52.540;6.434;2022-08-11T13:42:11;18.63;;;17.67;;
16900;SDS011;8567;52.540;6.434;2022-08-11T13:44:41;18.23;;;17.33;;
16900;SDS011;8567;52.540;6.434;2022-08-11T13:47:11;18.67;;;17.73;;
16900;SDS011;8567;52.540;6.434;2022-08-11T13:49:39;17.45;;;16.58;;
16900;SDS011;8567;52.540;6.434;2022-08-11T13:52:09;18.08;;;17.17;;
16900;SDS011;8567;52.540;6.434;2022-08-11T13:54:38;19.42;;;18.27;;
16900;SDS011;8567;52.540;6.434;2022-08-11T13:57:07;17.90;;;17.00;;
16900;SDS011;8567;52.540;6.434;2022-08-11T13:59:36;18.33;;;17.42;;
16900;SDS011;8567;52.540;6.434;2022-08-11T14:02:05;17.55;;;16.55;;
16900;SDS011;8567;52.540;6.434;2022-08-11T14:04:37;19.30;;;18.35;;
16900;SDS011;8567;52.540;6.434;2022-08-11T14:07:08;19.63;;;18.63;;
16900;SDS011;8567;52.540;6.434;2022-08-11T14:09:37;19.00;;;17.95;;
16900;SDS011;8567;52.540;6.434;2022-08-11T14:12:07;20.88;;;19.85;;
16900;SDS011;8567;52.540;6.434;2022-08-11T14:14:58;20.23;;;19.13;;
16900;SDS011;8567;52.540;6.434;2022-08-11T14:17:29;21.55;;;20.35;;
16900;SDS011;8567;52.540;6.434;2022-08-11T14:19:59;21.33;;;20.30;;
16900;SDS011;8567;52.540;6.434;2022-08-11T14:22:30;20.90;;;19.80;;
16900;SDS011;8567;52.540;6.434;2022-08-11T14:24:56;19.83;;;18.83;;
16900;SDS011;8567;52.540;6.434;2022-08-11T14:27:24;20.67;;;19.67;;
16900;SDS011;8567;52.540;6.434;2022-08-11T14:29:55;21.58;;;20.48;;
16900;SDS011;8567;52.540;6.434;2022-08-11T14:32:22;22.20;;;21.10;;
16900;SDS011;8567;52.540;6.434;2022-08-11T14:34:51;22.90;;;21.80;;
16900;SDS011;8567;52.540;6.434;2022-08-11T14:37:19;23.98;;;22.77;;
16900;SDS011;8567;52.540;6.434;2022-08-11T14:39:48;25.80;;;24.50;;
16900;SDS011;8567;52.540;6.434;2022-08-11T14:42:18;26.88;;;25.58;;
16900;SDS011;8567;52.540;6.434;2022-08-11T14:45:01;24.92;;;23.73;;
16900;SDS011;8567;52.540;6.434;2022-08-11T14:48:02;28.20;;;26.65;;
16900;SDS011;8567;52.540;6.434;2022-08-11T14:50:35;28.23;;;26.83;;
16900;SDS011;8567;52.540;6.434;2022-08-11T14:53:04;29.75;;;28.27;;
16900;SDS011;8567;52.540;6.434;2022-08-11T14:55:34;30.55;;;29.00;;
16900;SDS011;8567;52.540;6.434;2022-08-11T14:58:20;29.52;;;28.02;;
16900;SDS011;8567;52.540;6.434;2022-08-11T15:00:49;32.42;;;30.83;;
16900;SDS011;8567;52.540;6.434;2022-08-11T15:03:18;33.05;;;31.30;;
16900;SDS011;8567;52.540;6.434;2022-08-11T15:05:48;33.38;;;31.70;;
16900;SDS011;8567;52.540;6.434;2022-08-11T15:08:17;32.67;;;31.05;;
16900;SDS011;8567;52.540;6.434;2022-08-11T15:10:45;35.05;;;33.30;;
16900;SDS011;8567;52.540;6.434;2022-08-11T15:13:14;33.03;;;31.38;;
16900;SDS011;8567;52.540;6.434;2022-08-11T15:15:42;35.10;;;33.35;;
16900;SDS011;8567;52.540;6.434;2022-08-11T15:18:33;35.58;;;33.78;;
16900;SDS011;8567;52.540;6.434;2022-08-11T15:21:01;34.97;;;33.20;;
16900;SDS011;8567;52.540;6.434;2022-08-11T15:23:45;35.42;;;33.60;;
16900;SDS011;8567;52.540;6.434;2022-08-11T15:26:31;37.08;;;35.20;;
16900;SDS011;8567;52.540;6.434;2022-08-11T15:29:23;33.67;;;31.98;;
16900;SDS011;8567;52.540;6.434;2022-08-11T15:32:11;35.05;;;33.30;;
16900;SDS011;8567;52.540;6.434;2022-08-11T15:34:58;33.33;;;31.58;;
16900;SDS011;8567;52.540;6.434;2022-08-11T15:37:46;34.72;;;32.95;;
16900;SDS011;8567;52.540;6.434;2022-08-11T15:40:22;32.75;;;31.05;;
16900;SDS011;8567;52.540;6.434;2022-08-11T15:43:13;33.75;;;31.83;;
16900;SDS011;8567;52.540;6.434;2022-08-11T15:46:02;33.40;;;31.50;;
16900;SDS011;8567;52.540;6.434;2022-08-11T15:48:38;32.72;;;31.02;;
16900;SDS011;8567;52.540;6.434;2022-08-11T15:51:11;31.88;;;30.08;;
16900;SDS011;8567;52.540;6.434;2022-08-11T15:53:49;33.00;;;31.25;;
16900;SDS011;8567;52.540;6.434;2022-08-11T15:56:18;32.20;;;30.42;;
16900;SDS011;8567;52.540;6.434;2022-08-11T15:58:48;30.50;;;28.92;;
16900;SDS011;8567;52.540;6.434;2022-08-11T16:01:36;32.97;;;31.15;;
16900;SDS011;8567;52.540;6.434;2022-08-11T16:04:25;34.25;;;32.42;;
16900;SDS011;8567;52.540;6.434;2022-08-11T16:06:54;34.25;;;32.17;;
16900;SDS011;8567;52.540;6.434;2022-08-11T16:09:30;36.72;;;34.80;;
16900;SDS011;8567;52.540;6.434;2022-08-11T16:12:01;52.10;;;48.90;;
16900;SDS011;8567;52.540;6.434;2022-08-11T16:14:30;41.05;;;38.83;;
16900;SDS011;8567;52.540;6.434;2022-08-11T16:17:19;37.47;;;35.50;;
16900;SDS011;8567;52.540;6.434;2022-08-11T16:19:49;34.47;;;32.55;;
16900;SDS011;8567;52.540;6.434;2022-08-11T16:22:20;38.30;;;36.00;;
16900;SDS011;8567;52.540;6.434;2022-08-11T16:25:00;38.70;;;36.53;;
16900;SDS011;8567;52.540;6.434;2022-08-11T16:27:30;34.42;;;32.50;;
16900;SDS011;8567;52.540;6.434;2022-08-11T16:30:00;39.33;;;37.13;;
16900;SDS011;8567;52.540;6.434;2022-08-11T16:32:29;35.25;;;33.00;;
16900;SDS011;8567;52.540;6.434;2022-08-11T16:34:59;34.90;;;32.80;;
16900;SDS011;8567;52.540;6.434;2022-08-11T16:37:45;34.63;;;32.72;;
16900;SDS011;8567;52.540;6.434;2022-08-11T16:40:32;36.50;;;34.30;;
16900;SDS011;8567;52.540;6.434;2022-08-11T16:43:00;37.60;;;35.40;;
16900;SDS011;8567;52.540;6.434;2022-08-11T16:45:50;32.40;;;30.75;;
16900;SDS011;8567;52.540;6.434;2022-08-11T16:48:37;33.35;;;31.35;;